Time;durP1;ratioP1;P1;durP2;ratioP2;P2;SDS_P1;SDS_P2;PMS_P1;PMS_P2;Temp;Humidity;BMP_temperature;BMP_pressure;BME280_temperature;BME280_humidity;BME280_pressure;Samples;Min_cycle;Max_cycle;Signal;HPM_P1;HPM_P2
2022/01/10 00:01:40;;;;;;;18.50;8.93;;;;;;;-141.29;100.00;58932.97;5071424;28;20442;-75
2022/01/10 00:04:09;;;;;;;16.50;8.53;;;;;;;-141.29;100.00;58932.97;5072091;28;20851;-74
2022/01/10 00:06:40;;;;;;;20.30;9.13;;;;;;;-141.29;100.00;58932.97;5071134;28;20837;-74
2022/01/10 00:09:09;;;;;;;19.33;8.93;;;;;;;-141.29;100.00;58932.97;5071572;28;20500;-75
2022/01/10 00:11:36;;;;;;;19.43;8.93;;;;;;;-141.29;100.00;58932.97;5071258;28;20435;-75
2022/01/10 00:14:07;;;;;;;20.90;9.77;;;;;;;-141.29;100.00;58932.97;5073013;28;20454;-74
2022/01/10 00:16:34;;;;;;;16.33;8.07;;;;;;;-141.29;100.00;58932.97;5075374;28;20482;-74
2022/01/10 00:19:02;;;;;;;17.20;8.27;;;;;;;-141.29;100.00;58932.97;5075341;28;20854;-74
2022/01/10 00:21:29;;;;;;;15.57;7.90;;;;;;;-141.29;100.00;58932.97;5074914;28;20503;-75
2022/01/10 00:23:56;;;;;;;15.67;8.23;;;;;;;-141.29;100.00;58932.97;5074944;28;20809;-75
2022/01/10 00:26:25;;;;;;;15.33;8.10;;;;;;;-141.29;100.00;58932.97;5075311;28;20473;-74
2022/01/10 00:28:56;;;;;;;15.87;7.70;;;;;;;-141.29;100.00;58932.97;5075270;28;20449;-75
2022/01/10 00:31:23;;;;;;;16.60;8.00;;;;;;;-141.29;100.00;58932.97;5076638;28;20437;-75
2022/01/10 00:33:50;;;;;;;17.40;8.90;;;;;;;-141.29;100.00;58932.97;5078597;28;20530;-73
2022/01/10 00:36:21;;;;;;;17.93;8.47;;;;;;;-141.29;100.00;58932.97;5078057;28;20527;-74
2022/01/10 00:38:51;;;;;;;17.90;9.33;;;;;;;-141.29;100.00;58932.97;5078944;28;20438;-75
2022/01/10 00:41:18;;;;;;;20.87;8.90;;;;;;;-141.29;100.00;58932.97;5076944;28;20442;-76
2022/01/10 00:43:48;;;;;;;22.03;9.70;;;;;;;-141.29;100.00;58932.97;5078327;28;20462;-75
2022/01/10 00:46:21;;;;;;;25.13;11.50;;;;;;;-141.29;100.00;58932.97;5079551;28;20462;-72
2022/01/10 00:48:48;;;;;;;29.67;12.73;;;;;;;-141.29;100.00;58932.97;5079104;28;20511;-74
2022/01/10 00:51:17;;;;;;;18.80;9.30;;;;;;;-141.29;100.00;58932.97;5077786;28;20442;-75
2022/01/10 00:53:49;;;;;;;17.03;8.57;;;;;;;-141.29;100.00;58932.97;5075344;28;20434;-74
2022/01/10 00:56:27;;;;;;;14.27;8.17;;;;;;;-141.29;100.00;58932.97;5078148;28;20937;-73
2022/01/10 00:58:55;;;;;;;13.60;7.30;;;;;;;-141.29;100.00;58932.97;5078737;28;20499;-74
2022/01/10 01:01:27;;;;;;;12.63;6.63;;;;;;;-141.29;100.00;58932.97;5077498;28;20546;-77
2022/01/10 01:03:55;;;;;;;13.37;7.30;;;;;;;-141.29;100.00;58932.97;5079038;28;20435;-76
2022/01/10 01:06:25;;;;;;;18.40;8.40;;;;;;;-141.29;100.00;58932.97;5078125;28;20435;-73
2022/01/10 01:09:00;;;;;;;16.00;8.60;;;;;;;-141.29;100.00;58932.97;5077510;28;20488;-76
2022/01/10 01:14:25;;;;;;;16.20;9.20;;;;;;;-141.29;100.00;58932.97;5076110;28;20539;-74
2022/01/10 01:17:10;;;;;;;19.20;9.50;;;;;;;-141.29;100.00;58932.97;5074724;28;20875;-74
2022/01/10 01:25:20;;;;;;;16.57;8.90;;;;;;;-141.29;100.00;58932.97;5070872;28;20548;-76
2022/01/10 01:27:51;;;;;;;15.60;9.03;;;;;;;-141.29;100.00;58932.97;5074269;28;20523;-77
2022/01/10 01:30:20;;;;;;;20.83;10.20;;;;;;;-141.29;100.00;58932.97;5074707;28;20449;-76
2022/01/10 01:32:49;;;;;;;22.53;9.93;;;;;;;-141.29;100.00;58932.97;5073772;28;20911;-74
2022/01/10 01:35:16;;;;;;;20.20;12.63;;;;;;;-141.29;100.00;58932.97;5073731;28;20811;-76
2022/01/10 01:37:43;;;;;;;15.77;9.60;;;;;;;-141.29;100.00;58932.97;5073704;28;20466;-76
2022/01/10 01:40:11;;;;;;;15.73;9.00;;;;;;;-141.29;100.00;58932.97;5073521;28;20492;-75
2022/01/10 01:42:42;;;;;;;12.10;7.47;;;;;;;-141.29;100.00;58932.97;5073874;28;20431;-76
2022/01/10 01:45:15;;;;;;;13.10;8.07;;;;;;;-141.29;100.00;58932.97;5074421;28;20434;-77
2022/01/10 01:47:46;;;;;;;15.70;8.13;;;;;;;-141.29;100.00;58932.97;5073313;28;20501;-75
2022/01/10 01:50:13;;;;;;;16.07;8.30;;;;;;;-141.29;100.00;58932.97;5073708;28;20439;-76
2022/01/10 01:52:43;;;;;;;18.90;9.07;;;;;;;-141.29;100.00;58932.97;5073285;28;20447;-75
2022/01/10 01:55:10;;;;;;;17.00;9.30;;;;;;;-141.29;100.00;58932.97;5073456;28;20431;-76
2022/01/10 01:57:39;;;;;;;16.60;10.03;;;;;;;-141.29;100.00;58932.97;5073077;28;20490;-77
2022/01/10 02:00:10;;;;;;;20.17;10.57;;;;;;;-141.29;100.00;58932.97;5073321;28;20431;-77
2022/01/10 02:02:38;;;;;;;13.90;9.03;;;;;;;-141.29;100.00;58932.97;5072939;28;20451;-77
2022/01/10 02:05:10;;;;;;;21.30;11.50;;;;;;;-141.29;100.00;58932.97;5072999;28;21023;-77
2022/01/10 02:07:38;;;;;;;15.07;8.87;;;;;;;-141.29;100.00;58932.97;5073146;28;20427;-78
2022/01/10 02:10:06;;;;;;;13.27;7.80;;;;;;;-141.29;100.00;58932.97;5072907;28;20516;-77
2022/01/10 02:12:33;;;;;;;11.27;6.97;;;;;;;-141.29;100.00;58932.97;5073147;28;20435;-76
2022/01/10 02:15:04;;;;;;;15.47;8.27;;;;;;;-141.29;100.00;58932.97;5072907;28;20443;-76
2022/01/10 02:17:36;;;;;;;13.80;7.67;;;;;;;-141.29;100.00;58932.97;5072820;28;20478;-77
2022/01/10 02:20:08;;;;;;;15.37;8.17;;;;;;;-141.29;100.00;58932.97;5072993;28;20451;-78
2022/01/10 02:22:42;;;;;;;15.63;7.63;;;;;;;-141.29;100.00;58932.97;5072270;28;21006;-77
2022/01/10 02:25:11;;;;;;;15.33;7.80;;;;;;;-141.29;100.00;58932.97;5072712;28;20932;-77
2022/01/10 02:27:41;;;;;;;13.33;7.30;;;;;;;-141.29;100.00;58932.97;5072528;28;20981;-75
2022/01/10 02:30:09;;;;;;;16.37;8.63;;;;;;;-141.29;100.00;58932.97;5072438;28;20489;-76
2022/01/10 02:32:37;;;;;;;14.93;8.47;;;;;;;-141.29;100.00;58932.97;5072320;28;20442;-76
2022/01/10 02:35:19;;;;;;;26.47;7.80;;;;;;;-141.29;100.00;58932.97;5072374;28;20802;-75
2022/01/10 02:37:48;;;;;;;16.33;7.50;;;;;;;-141.29;100.00;58932.97;5071538;28;21129;-75
2022/01/10 02:40:18;;;;;;;15.70;8.43;;;;;;;-141.29;100.00;58932.97;5071105;28;20549;-75
2022/01/10 02:42:46;;;;;;;14.20;8.13;;;;;;;-141.29;100.00;58932.97;5072856;28;20485;-77
2022/01/10 02:45:15;;;;;;;13.83;8.07;;;;;;;-141.29;100.00;58932.97;5071891;28;21046;-76
2022/01/10 02:47:43;;;;;;;13.77;7.80;;;;;;;-141.29;100.00;58932.97;5072025;28;20471;-77
2022/01/10 02:50:13;;;;;;;15.47;7.50;;;;;;;-141.29;100.00;58932.97;5073022;28;20438;-75
2022/01/10 02:52:40;;;;;;;11.70;7.00;;;;;;;-141.29;100.00;58932.97;5072665;28;20450;-77
2022/01/10 02:55:10;;;;;;;12.87;6.60;;;;;;;-141.29;100.00;58932.97;5072307;28;20447;-75
2022/01/10 02:57:38;;;;;;;13.47;6.27;;;;;;;-141.29;100.00;58932.97;5072016;28;20927;-75
2022/01/10 03:00:09;;;;;;;13.33;7.93;;;;;;;-141.29;100.00;58932.97;5072664;28;20496;-76
2022/01/10 03:02:37;;;;;;;26.73;12.73;;;;;;;-141.29;100.00;58932.97;5071530;28;20953;-74
2022/01/10 03:05:05;;;;;;;49.57;22.33;;;;;;;-141.29;100.00;58932.97;5070430;28;20813;-77
2022/01/10 03:07:34;;;;;;;89.27;32.60;;;;;;;-141.29;100.00;58932.97;5074038;28;20499;-76
2022/01/10 03:10:01;;;;;;;37.03;15.73;;;;;;;-141.29;100.00;58932.97;5073487;28;20874;-74
2022/01/10 03:12:31;;;;;;;13.83;8.27;;;;;;;-141.29;100.00;58932.97;5072240;28;20443;-76
2022/01/10 03:14:59;;;;;;;14.10;8.03;;;;;;;-141.29;100.00;58932.97;5071891;28;20474;-75
2022/01/10 03:17:27;;;;;;;13.50;7.47;;;;;;;-141.29;100.00;58932.97;5071627;28;20489;-76
2022/01/10 03:19:55;;;;;;;14.30;7.57;;;;;;;-141.29;100.00;58932.97;5071759;28;20786;-75
2022/01/10 03:22:22;;;;;;;10.90;6.30;;;;;;;-141.29;100.00;58932.97;5071792;28;20513;-75
2022/01/10 03:24:52;;;;;;;11.50;6.33;;;;;;;-141.29;100.00;58932.97;5071568;28;20495;-76
2022/01/10 03:27:20;;;;;;;11.87;6.27;;;;;;;-141.29;100.00;58932.97;5071976;28;20508;-75
2022/01/10 03:29:47;;;;;;;12.20;5.73;;;;;;;-141.29;100.00;58932.97;5071681;28;20477;-74
2022/01/10 03:32:16;;;;;;;11.20;6.37;;;;;;;-141.29;100.00;58932.97;5072011;28;20434;-75
2022/01/10 03:34:44;;;;;;;11.77;5.93;;;;;;;-141.29;100.00;58932.97;5071898;28;20504;-74
2022/01/10 03:37:12;;;;;;;14.10;6.27;;;;;;;-141.29;100.00;58932.97;5072293;28;20438;-76
2022/01/10 03:39:44;;;;;;;9.63;5.70;;;;;;;-141.29;100.00;58932.97;5071616;28;20496;-76
2022/01/10 03:42:14;;;;;;;7.70;4.93;;;;;;;-141.29;100.00;58932.97;5070754;28;20442;-75
2022/01/10 03:44:44;;;;;;;10.17;6.20;;;;;;;-141.29;100.00;58932.97;5071493;28;20430;-75
2022/01/10 03:47:21;;;;;;;8.30;5.00;;;;;;;-141.29;100.00;58932.97;5071725;28;20443;-76
2022/01/10 03:49:50;;;;;;;7.90;5.07;;;;;;;-141.29;100.00;58932.97;5076422;28;20469;-75
2022/01/10 03:52:17;;;;;;;23.60;10.57;;;;;;;-141.29;100.00;58932.97;5075656;28;20496;-74
2022/01/10 03:54:48;;;;;;;30.90;15.63;;;;;;;-141.29;100.00;58932.97;5074285;28;21015;-74
2022/01/10 03:57:17;;;;;;;13.73;7.93;;;;;;;-141.29;100.00;58932.97;5075408;28;20499;-76
2022/01/10 03:59:51;;;;;;;9.27;5.93;;;;;;;-141.29;100.00;58932.97;5075306;28;20423;-75
2022/01/10 04:02:25;;;;;;;12.40;6.00;;;;;;;-141.29;100.00;58932.97;5075886;28;20498;-75
2022/01/10 04:04:55;;;;;;;9.93;6.70;;;;;;;-141.29;100.00;58932.97;5076098;28;20439;-75
2022/01/10 04:07:23;;;;;;;10.30;7.00;;;;;;;-141.29;100.00;58932.97;5075506;28;20446;-75
2022/01/10 04:09:52;;;;;;;9.90;6.50;;;;;;;-141.29;100.00;58932.97;5075028;28;20511;-77
2022/01/10 04:12:24;;;;;;;11.43;7.43;;;;;;;-141.29;100.00;58932.97;5075006;28;20908;-77
2022/01/10 04:15:01;;;;;;;11.37;6.17;;;;;;;-141.29;100.00;58932.97;5074889;28;20438;-73
2022/01/10 04:17:28;;;;;;;12.57;6.90;;;;;;;-141.29;100.00;58932.97;5073817;28;20499;-75
2022/01/10 04:19:57;;;;;;;10.27;6.23;;;;;;;-141.29;100.00;58932.97;5073201;28;20446;-75
2022/01/10 04:22:25;;;;;;;15.83;8.63;;;;;;;-141.29;100.00;58932.97;5075018;28;20512;-75
2022/01/10 04:24:52;;;;;;;14.13;7.90;;;;;;;-141.29;100.00;58932.97;5074708;28;20450;-75
2022/01/10 04:27:22;;;;;;;23.07;14.47;;;;;;;-141.29;100.00;58932.97;5074863;28;20438;-76
2022/01/10 04:29:51;;;;;;;52.57;32.70;;;;;;;-141.29;100.00;58932.97;5073641;28;20444;-74
2022/01/10 04:32:18;;;;;;;28.07;16.13;;;;;;;-141.29;100.00;58932.97;5075092;28;20853;-75
2022/01/10 04:34:47;;;;;;;11.60;7.10;;;;;;;-141.29;100.00;58932.97;5074294;28;20455;-74
2022/01/10 04:37:17;;;;;;;23.07;11.50;;;;;;;-141.29;100.00;58932.97;5074683;28;20980;-75
2022/01/10 04:39:44;;;;;;;14.40;6.10;;;;;;;-141.29;100.00;58932.97;5074898;28;20450;-76
2022/01/10 04:42:11;;;;;;;20.07;10.83;;;;;;;-141.29;100.00;58932.97;5074383;28;20869;-76
2022/01/10 04:44:43;;;;;;;20.80;10.83;;;;;;;-141.29;100.00;58932.97;5074649;28;20449;-77
2022/01/10 04:47:12;;;;;;;12.20;6.93;;;;;;;-141.29;100.00;58932.97;5074400;28;20570;-77
2022/01/10 04:50:03;;;;;;;7.10;3.47;;;;;;;-141.29;100.00;58932.97;5074059;28;20481;-76
2022/01/10 04:52:34;;;;;;;8.87;5.70;;;;;;;-141.29;100.00;58932.97;5074146;28;20442;-77
2022/01/10 04:55:02;;;;;;;9.10;5.10;;;;;;;-141.29;100.00;58932.97;5074270;28;20477;-75
2022/01/10 04:57:29;;;;;;;11.17;6.10;;;;;;;-141.29;100.00;58932.97;5074260;28;20507;-76
2022/01/10 05:00:01;;;;;;;38.07;18.30;;;;;;;-141.29;100.00;58932.97;5073595;28;20434;-74
2022/01/10 05:02:30;;;;;;;18.70;8.63;;;;;;;-141.29;100.00;58932.97;5074422;28;20949;-77
2022/01/10 05:04:57;;;;;;;20.70;11.20;;;;;;;-141.29;100.00;58932.97;5074110;28;20445;-77
2022/01/10 05:07:25;;;;;;;17.50;9.03;;;;;;;-141.29;100.00;58932.97;5074095;28;20961;-76
2022/01/10 05:09:53;;;;;;;26.73;14.43;;;;;;;-141.29;100.00;58932.97;5074713;28;20439;-75
2022/01/10 05:12:24;;;;;;;16.77;9.90;;;;;;;-141.29;100.00;58932.97;5074482;28;20496;-74
2022/01/10 05:14:51;;;;;;;11.03;6.33;;;;;;;-141.29;100.00;58932.97;5073650;28;20443;-74
2022/01/10 05:17:28;;;;;;;9.70;5.43;;;;;;;-141.29;100.00;58932.97;5073039;28;20446;-76
2022/01/10 05:19:55;;;;;;;10.20;6.17;;;;;;;-141.29;100.00;58932.97;5081199;28;20438;-76
2022/01/10 05:22:24;;;;;;;15.30;7.40;;;;;;;-141.29;100.00;58932.97;5073945;28;20535;-77
2022/01/10 05:24:51;;;;;;;10.90;5.37;;;;;;;-141.29;100.00;58932.97;5074024;28;20500;-77
2022/01/10 05:27:22;;;;;;;16.33;6.23;;;;;;;-141.29;100.00;58932.97;5072626;28;20954;-77
2022/01/10 05:29:54;;;;;;;13.77;5.43;;;;;;;-141.29;100.00;58932.97;5074562;28;20617;-74
2022/01/10 05:32:27;;;;;;;14.20;8.17;;;;;;;-141.29;100.00;58932.97;5073418;28;20439;-75
2022/01/10 05:34:58;;;;;;;18.17;11.50;;;;;;;-141.29;100.00;58932.97;5073598;28;20439;-75
2022/01/10 05:37:26;;;;;;;22.80;14.47;;;;;;;-141.29;100.00;58932.97;5073507;28;20442;-75
2022/01/10 05:39:52;;;;;;;26.27;12.60;;;;;;;-141.29;100.00;58932.97;5072730;28;20497;-75
2022/01/10 05:42:22;;;;;;;27.93;14.87;;;;;;;-141.29;100.00;58932.97;5073330;28;20824;-75
2022/01/10 05:44:54;;;;;;;48.33;21.53;;;;;;;-141.29;100.00;58932.97;5074229;28;20512;-75
2022/01/10 05:47:21;;;;;;;20.80;10.30;;;;;;;-141.29;100.00;58932.97;5070218;28;20502;-75
2022/01/10 05:50:00;;;;;;;25.63;13.50;;;;;;;-141.29;100.00;58932.97;5072848;28;20520;-75
2022/01/10 05:52:30;;;;;;;14.53;8.03;;;;;;;-141.29;100.00;58932.97;5073401;28;20834;-74
2022/01/10 05:55:01;;;;;;;16.37;8.13;;;;;;;-141.29;100.00;58932.97;5073132;28;20508;-74
2022/01/10 05:57:30;;;;;;;13.33;7.70;;;;;;;-141.29;100.00;58932.97;5072961;28;20504;-76
2022/01/10 05:59:57;;;;;;;13.17;7.87;;;;;;;-141.29;100.00;58932.97;5072819;28;21097;-74
2022/01/10 06:02:24;;;;;;;14.03;7.90;;;;;;;-141.29;100.00;58932.97;5072978;28;20497;-75
2022/01/10 06:04:57;;;;;;;14.17;8.30;;;;;;;-141.29;100.00;58932.97;5073541;28;20442;-74
2022/01/10 06:07:24;;;;;;;18.90;8.60;;;;;;;-141.29;100.00;58932.97;5072786;28;20920;-73
2022/01/10 06:10:01;;;;;;;13.63;8.27;;;;;;;-141.29;100.00;58932.97;5072769;28;20439;-78
2022/01/10 06:12:33;;;;;;;12.67;6.27;;;;;;;-141.29;100.00;58932.97;5073100;28;20521;-74
2022/01/10 06:15:01;;;;;;;18.70;9.30;;;;;;;-141.29;100.00;58932.97;5072673;28;20442;-75
2022/01/10 06:17:33;;;;;;;13.30;7.60;;;;;;;-141.29;100.00;58932.97;5072417;28;20445;-75
2022/01/10 06:20:02;;;;;;;14.27;7.23;;;;;;;-141.29;100.00;58932.97;5072858;28;20481;-75
2022/01/10 06:22:30;;;;;;;11.87;6.30;;;;;;;-141.29;100.00;58932.97;5072712;28;20443;-74
2022/01/10 06:24:57;;;;;;;13.63;7.43;;;;;;;-141.29;100.00;58932.97;5073661;28;20470;-75
2022/01/10 06:27:24;;;;;;;18.57;9.13;;;;;;;-141.29;100.00;58932.97;5072615;28;20459;-75
2022/01/10 06:29:51;;;;;;;22.00;11.83;;;;;;;-141.29;100.00;58932.97;5072351;28;20447;-75
2022/01/10 06:32:19;;;;;;;28.43;15.73;;;;;;;-141.29;100.00;58932.97;5072144;28;20450;-76
2022/01/10 06:34:47;;;;;;;23.10;13.97;;;;;;;-141.29;100.00;58932.97;5072168;28;20442;-74
2022/01/10 06:37:16;;;;;;;23.77;15.60;;;;;;;-141.29;100.00;58932.97;5071045;28;20443;-75
2022/01/10 06:39:43;;;;;;;17.77;11.83;;;;;;;-141.29;100.00;58932.97;5072051;28;20568;-76
2022/01/10 06:42:10;;;;;;;16.47;8.37;;;;;;;-141.29;100.00;58932.97;5072170;28;20477;-74
2022/01/10 06:44:37;;;;;;;14.93;5.60;;;;;;;-141.29;100.00;58932.97;5072506;28;20496;-73
2022/01/10 06:47:05;;;;;;;13.13;7.47;;;;;;;-141.29;100.00;58932.97;5072605;28;20462;-74
2022/01/10 06:49:34;;;;;;;17.97;8.13;;;;;;;-141.29;100.00;58932.97;5072271;28;20489;-75
2022/01/10 06:52:01;;;;;;;11.97;7.40;;;;;;;-141.29;100.00;58932.97;5072040;28;20442;-76
2022/01/10 06:54:30;;;;;;;18.83;8.13;;;;;;;-141.29;100.00;58932.97;5072026;28;20442;-75
2022/01/10 06:56:58;;;;;;;14.03;7.83;;;;;;;-141.29;100.00;58932.97;5072114;28;20442;-75
2022/01/10 06:59:26;;;;;;;14.30;7.13;;;;;;;-141.29;100.00;58932.97;5071593;28;20497;-74
2022/01/10 07:01:55;;;;;;;16.10;8.03;;;;;;;-141.29;100.00;58932.97;5071996;28;20596;-75
2022/01/10 07:04:24;;;;;;;17.10;7.47;;;;;;;-141.29;100.00;58932.97;5072378;28;20553;-76
2022/01/10 07:06:51;;;;;;;16.23;7.20;;;;;;;-141.29;100.00;58932.97;5071882;28;20541;-75
2022/01/10 07:09:19;;;;;;;12.27;6.80;;;;;;;-141.29;100.00;58932.97;5072431;28;20454;-75
2022/01/10 07:11:54;;;;;;;19.67;9.53;;;;;;;-141.29;100.00;58932.97;5071780;28;20500;-75
2022/01/10 07:14:21;;;;;;;20.80;11.73;;;;;;;-141.29;100.00;58932.97;5072613;28;20991;-74
2022/01/10 07:16:50;;;;;;;20.83;9.83;;;;;;;-141.29;100.00;58932.97;5071562;28;20438;-77
2022/01/10 07:19:17;;;;;;;15.77;7.70;;;;;;;-141.29;100.00;58932.97;5071736;28;20539;-74
2022/01/10 07:21:47;;;;;;;19.30;9.00;;;;;;;-141.29;100.00;58932.97;5071711;28;20535;-75
2022/01/10 07:24:15;;;;;;;15.90;9.13;;;;;;;-141.29;100.00;58932.97;5071299;28;20446;-74
2022/01/10 07:26:43;;;;;;;25.53;11.07;;;;;;;-141.29;100.00;58932.97;5072078;28;20451;-74
2022/01/10 07:29:12;;;;;;;18.67;10.07;;;;;;;-141.29;100.00;58932.97;5071956;28;20859;-74
2022/01/10 07:31:41;;;;;;;16.47;7.90;;;;;;;-141.29;100.00;58932.97;5078167;28;20435;-75
2022/01/10 07:34:11;;;;;;;17.03;7.73;;;;;;;-141.29;100.00;58932.97;5071880;28;20445;-73
2022/01/10 07:36:38;;;;;;;17.83;8.03;;;;;;;-141.29;100.00;58932.97;5072068;28;20434;-76
2022/01/10 07:39:07;;;;;;;14.03;7.93;;;;;;;-141.29;100.00;58932.97;5071264;28;21089;-73
2022/01/10 07:41:34;;;;;;;17.57;8.23;;;;;;;-141.29;100.00;58932.97;5071661;28;20449;-76
2022/01/10 07:44:01;;;;;;;16.87;9.23;;;;;;;-141.29;100.00;58932.97;5071638;28;20931;-76
2022/01/10 07:46:32;;;;;;;12.07;7.20;;;;;;;-141.29;100.00;58932.97;5072074;28;20443;-77
2022/01/10 07:48:59;;;;;;;19.30;11.00;;;;;;;-141.29;100.00;58932.97;5071807;28;20901;-75
2022/01/10 07:51:27;;;;;;;22.27;10.23;;;;;;;-141.29;100.00;58932.97;5072253;28;20515;-75
2022/01/10 07:53:54;;;;;;;20.87;10.83;;;;;;;-141.29;100.00;58932.97;5071689;28;20434;-76
2022/01/10 07:56:21;;;;;;;22.20;11.93;;;;;;;-141.29;100.00;58932.97;5071422;28;20454;-77
2022/01/10 07:58:51;;;;;;;17.93;11.10;;;;;;;-141.29;100.00;58932.97;5070133;28;20485;-75
2022/01/10 08:01:19;;;;;;;19.37;11.20;;;;;;;-141.29;100.00;58932.97;5071471;28;20511;-76
2022/01/10 08:03:49;;;;;;;19.13;9.77;;;;;;;-141.29;100.00;58932.97;5070064;28;20544;-75
2022/01/10 08:06:16;;;;;;;17.73;10.33;;;;;;;-141.29;100.00;58932.97;5072693;28;20426;-76
2022/01/10 08:08:43;;;;;;;14.87;9.30;;;;;;;-141.29;100.00;58932.97;5071718;28;20446;-75
2022/01/10 08:11:10;;;;;;;20.17;10.50;;;;;;;-141.29;100.00;58932.97;5071382;28;20446;-74
2022/01/10 08:13:37;;;;;;;23.80;12.50;;;;;;;-141.29;100.00;58932.97;5071527;28;20473;-74
2022/01/10 08:16:09;;;;;;;20.77;12.20;;;;;;;-141.29;100.00;58932.97;5071521;28;20973;-75
2022/01/10 08:18:36;;;;;;;19.93;11.73;;;;;;;-141.29;100.00;58932.97;5071443;28;20439;-77
2022/01/10 08:21:06;;;;;;;20.17;10.90;;;;;;;-141.29;100.00;58932.97;5070733;28;20872;-75
2022/01/10 08:23:32;;;;;;;20.97;11.23;;;;;;;-141.29;100.00;58932.97;5071392;28;20477;-77
2022/01/10 08:25:59;;;;;;;20.03;11.47;;;;;;;-141.29;100.00;58932.97;5071423;28;20539;-76
2022/01/10 08:28:26;;;;;;;23.83;12.27;;;;;;;-141.29;100.00;58932.97;5071242;28;20943;-74
2022/01/10 08:30:55;;;;;;;24.43;15.30;;;;;;;-141.29;100.00;58932.97;5071953;28;20434;-76
2022/01/10 08:33:23;;;;;;;22.67;12.43;;;;;;;-141.29;100.00;58932.97;5069802;28;20447;-75
2022/01/10 08:35:52;;;;;;;20.10;11.00;;;;;;;-141.29;100.00;58932.97;5075727;28;20508;-76
2022/01/10 08:38:31;;;;;;;20.17;10.73;;;;;;;-141.29;100.00;58932.97;5075130;28;20445;-77
2022/01/10 08:40:58;;;;;;;25.33;12.57;;;;;;;-141.29;100.00;58932.97;5077555;28;20450;-75
2022/01/10 08:43:25;;;;;;;18.33;10.03;;;;;;;-141.29;100.00;58932.97;5075615;28;20442;-75
2022/01/10 08:45:52;;;;;;;24.77;11.07;;;;;;;-141.29;100.00;58932.97;5075351;28;20469;-76
2022/01/10 08:48:28;;;;;;;31.80;14.33;;;;;;;-141.29;100.00;58932.97;5075504;28;20466;-76
2022/01/10 08:50:55;;;;;;;30.27;14.50;;;;;;;-141.29;100.00;58932.97;5076008;28;20446;-76
2022/01/10 08:53:26;;;;;;;24.40;11.93;;;;;;;-141.29;100.00;58932.97;5076029;28;20442;-76
2022/01/10 08:55:55;;;;;;;19.47;11.10;;;;;;;-141.29;100.00;58932.97;5075946;28;20446;-75
2022/01/10 08:58:23;;;;;;;33.03;16.00;;;;;;;-141.29;100.00;58932.97;5075363;28;20795;-76
2022/01/10 09:00:50;;;;;;;23.50;10.83;;;;;;;-141.29;100.00;58932.97;5075356;28;20570;-76
2022/01/10 09:03:17;;;;;;;21.00;11.30;;;;;;;-141.29;100.00;58932.97;5075469;28;20512;-76
2022/01/10 09:05:44;;;;;;;21.00;11.00;;;;;;;-141.29;100.00;58932.97;5075346;28;20435;-76
2022/01/10 09:08:12;;;;;;;28.90;14.23;;;;;;;-141.29;100.00;58932.97;5075502;28;20454;-75
2022/01/10 09:10:42;;;;;;;24.30;13.17;;;;;;;-141.29;100.00;58932.97;5075843;28;20756;-77
2022/01/10 09:13:10;;;;;;;33.93;13.97;;;;;;;-141.29;100.00;58932.97;5074637;28;20446;-75
2022/01/10 09:15:39;;;;;;;32.30;15.10;;;;;;;-141.29;100.00;58932.97;5074552;28;20455;-74
2022/01/10 09:18:09;;;;;;;26.53;13.63;;;;;;;-141.29;100.00;58932.97;5075665;28;20431;-76
2022/01/10 09:20:37;;;;;;;28.90;14.13;;;;;;;-141.29;100.00;58932.97;5074852;28;20470;-77
2022/01/10 09:23:05;;;;;;;25.57;13.37;;;;;;;-141.29;100.00;58932.97;5074980;28;20449;-76
2022/01/10 09:25:36;;;;;;;22.40;11.90;;;;;;;-141.29;100.00;58932.97;5075004;28;20466;-75
2022/01/10 09:28:13;;;;;;;17.53;10.30;;;;;;;-141.29;100.00;58932.97;5075195;28;20466;-75
2022/01/10 09:31:02;;;;;;;18.93;10.20;;;;;;;-141.29;100.00;58932.97;5079064;28;20454;-76
2022/01/10 09:33:31;;;;;;;26.47;14.10;;;;;;;-141.29;100.00;58932.97;5075618;28;20443;-75
2022/01/10 09:35:59;;;;;;;26.13;14.20;;;;;;;-141.29;100.00;58932.97;5075858;28;20442;-77
2022/01/10 09:38:26;;;;;;;35.20;17.87;;;;;;;-141.29;100.00;58932.97;5075316;28;20486;-75
2022/01/10 09:41:07;;;;;;;36.13;18.77;;;;;;;-141.29;100.00;58932.97;5074696;28;20543;-76
2022/01/10 09:43:51;;;;;;;42.87;20.83;;;;;;;-141.29;100.00;58932.97;5075973;28;20497;-74
2022/01/10 09:46:19;;;;;;;45.53;20.80;;;;;;;-141.29;100.00;58932.97;5077480;28;20571;-75
2022/01/10 09:48:47;;;;;;;41.57;21.87;;;;;;;-141.29;100.00;58932.97;5079237;28;20466;-75
2022/01/10 09:51:15;;;;;;;40.47;21.50;;;;;;;-141.29;100.00;58932.97;5077475;28;20439;-76
2022/01/10 09:53:46;;;;;;;41.23;21.63;;;;;;;-141.29;100.00;58932.97;5080232;28;20435;-75
2022/01/10 09:56:13;;;;;;;35.00;19.53;;;;;;;-141.29;100.00;58932.97;5075508;28;20862;-76
2022/01/10 09:58:41;;;;;;;41.73;22.57;;;;;;;-141.29;100.00;58932.97;5074867;28;20604;-76
2022/01/10 10:01:10;;;;;;;44.60;21.13;;;;;;;-141.29;100.00;58932.97;5075171;28;20486;-75
2022/01/10 10:03:38;;;;;;;41.00;22.03;;;;;;;-141.29;100.00;58932.97;5074650;28;20446;-76
2022/01/10 10:06:08;;;;;;;32.37;16.13;;;;;;;-141.29;100.00;58932.97;5074930;28;20434;-77
2022/01/10 10:08:40;;;;;;;43.43;18.03;;;;;;;-141.29;100.00;58932.97;5074584;28;20482;-77
2022/01/10 10:11:08;;;;;;;35.07;19.37;;;;;;;-141.29;100.00;58932.97;5074885;28;20488;-77
2022/01/10 10:13:43;;;;;;;33.47;19.47;;;;;;;-141.29;100.00;58932.97;5074473;28;20443;-75
2022/01/10 10:16:17;;;;;;;35.97;21.27;;;;;;;-141.29;100.00;58932.97;5074296;28;20896;-76
2022/01/10 10:18:48;;;;;;;37.13;20.63;;;;;;;-141.29;100.00;58932.97;5074330;28;20427;-75
2022/01/10 10:21:16;;;;;;;39.57;21.17;;;;;;;-141.29;100.00;58932.97;5073742;28;20492;-76
2022/01/10 10:23:47;;;;;;;32.10;19.17;;;;;;;-141.29;100.00;58932.97;5073855;28;20435;-76
2022/01/10 10:26:19;;;;;;;35.20;18.80;;;;;;;-141.29;100.00;58932.97;5074385;28;20529;-75
2022/01/10 10:28:47;;;;;;;37.67;19.93;;;;;;;-141.29;100.00;58932.97;5073517;28;20622;-76
2022/01/10 10:31:24;;;;;;;33.10;19.27;;;;;;;-141.29;100.00;58932.97;5072619;28;20520;-75
2022/01/10 10:33:55;;;;;;;37.17;20.20;;;;;;;-141.29;100.00;58932.97;5073003;28;20438;-76
2022/01/10 10:36:25;;;;;;;37.90;20.80;;;;;;;-141.29;100.00;58932.97;5072817;28;20529;-75
2022/01/10 10:38:53;;;;;;;38.33;21.57;;;;;;;-141.29;100.00;58932.97;5072693;28;20443;-75
2022/01/10 10:41:21;;;;;;;42.87;22.60;;;;;;;-141.29;100.00;58932.97;5072377;28;20494;-75
2022/01/10 10:43:50;;;;;;;47.70;24.40;;;;;;;-141.29;100.00;58932.97;5072698;28;20447;-75
2022/01/10 10:46:26;;;;;;;51.83;25.93;;;;;;;-141.29;100.00;58932.97;5072639;28;20483;-75
2022/01/10 10:48:58;;;;;;;41.17;24.17;;;;;;;-141.29;100.00;58932.97;5072079;28;21012;-74
2022/01/10 10:51:30;;;;;;;39.57;19.73;;;;;;;-141.29;100.00;58932.97;5072198;28;20939;-75
2022/01/10 10:54:13;;;;;;;33.93;20.03;;;;;;;-141.29;100.00;58932.97;5072139;28;20866;-76
2022/01/10 10:56:43;;;;;;;32.27;17.17;;;;;;;-141.29;100.00;58932.97;5070326;28;20549;-75
2022/01/10 10:59:11;;;;;;;29.30;15.23;;;;;;;-141.29;100.00;58932.97;5072520;28;20450;-76
2022/01/10 11:01:43;;;;;;;26.50;12.77;;;;;;;-141.29;100.00;58932.97;5072622;28;20530;-76
2022/01/10 11:04:14;;;;;;;25.77;12.97;;;;;;;-141.29;100.00;58932.97;5072131;28;20434;-76
2022/01/10 11:06:43;;;;;;;23.60;11.67;;;;;;;-141.29;100.00;58932.97;5072159;28;20435;-78
2022/01/10 11:09:15;;;;;;;20.37;11.13;;;;;;;-141.29;100.00;58932.97;5071835;28;20446;-75
2022/01/10 11:11:44;;;;;;;19.07;10.87;;;;;;;-141.29;100.00;58932.97;5072214;28;20564;-75
2022/01/10 11:14:14;;;;;;;19.20;9.60;;;;;;;-141.29;100.00;58932.97;5072149;28;20446;-77
2022/01/10 11:16:45;;;;;;;16.83;9.20;;;;;;;-141.29;100.00;58932.97;5071965;28;20469;-77
2022/01/10 11:19:14;;;;;;;14.90;8.80;;;;;;;-141.29;100.00;58932.97;5072021;28;20447;-76